sensor_id;sensor_type;location;lat;lon;timestamp;pressure;altitude;pressure_sealevel;temperature;humidity
10474;BME280;5284;50.446;7.904;2022-11-20T00:03:18;97977.13;;;0.29;100.00
10474;BME280;5284;50.446;7.904;2022-11-20T00:08:21;97961.13;;;0.34;100.00
10474;BME280;5284;50.446;7.904;2022-11-20T00:13:24;97958.44;;;0.35;100.00
10474;BME280;5284;50.446;7.904;2022-11-20T00:18:28;97958.28;;;0.38;100.00
10474;BME280;5284;50.446;7.904;2022-11-20T00:23:32;97957.34;;;0.39;100.00
10474;BME280;5284;50.446;7.904;2022-11-20T00:28:35;97960.25;;;0.35;100.00
10474;BME280;5284;50.446;7.904;2022-11-20T00:33:40;97953.13;;;0.37;100.00
10474;BME280;5284;50.446;7.904;2022-11-20T00:38:43;97950.59;;;0.35;100.00
10474;BME280;5284;50.446;7.904;2022-11-20T00:43:47;97941.72;;;0.38;100.00
10474;BME280;5284;50.446;7.904;2022-11-20T00:48:51;97949.16;;;0.45;100.00
10474;BME280;5284;50.446;7.904;2022-11-20T00:53:55;97949.41;;;0.41;100.00
10474;BME280;5284;50.446;7.904;2022-11-20T00:58:59;97953.03;;;0.38;100.00
10474;BME280;5284;50.446;7.904;2022-11-20T01:04:04;97956.00;;;0.48;100.00
10474;BME280;5284;50.446;7.904;2022-11-20T01:09:10;97953.47;;;0.46;100.00
10474;BME280;5284;50.446;7.904;2022-11-20T01:14:16;97964.13;;;0.43;100.00
10474;BME280;5284;50.446;7.904;2022-11-20T01:19:22;97958.22;;;0.40;100.00
10474;BME280;5284;50.446;7.904;2022-11-20T01:24:26;97953.13;;;0.37;100.00
10474;BME280;5284;50.446;7.904;2022-11-20T01:29:29;97952.88;;;0.41;100.00
10474;BME280;5284;50.446;7.904;2022-11-20T01:34:33;97952.63;;;0.46;100.00
10474;BME280;5284;50.446;7.904;2022-11-20T01:39:36;97951.28;;;0.54;100.00
10474;BME280;5284;50.446;7.904;2022-11-20T01:44:51;97939.19;;;0.52;100.00
10474;BME280;5284;50.446;7.904;2022-11-20T01:49:59;97933.94;;;0.52;100.00
10474;BME280;5284;50.446;7.904;2022-11-20T01:55:07;97935.22;;;0.45;100.00
10474;BME280;5284;50.446;7.904;2022-11-20T02:00:14;97926.06;;;0.52;100.00
10474;BME280;5284;50.446;7.904;2022-11-20T02:05:23;97919.19;;;0.49;100.00
10474;BME280;5284;50.446;7.904;2022-11-20T02:10:28;97929.84;;;0.46;100.00
10474;BME280;5284;50.446;7.904;2022-11-20T02:15:32;97926.31;;;0.47;100.00
10474;BME280;5284;50.446;7.904;2022-11-20T02:20:36;97924.38;;;0.51;100.00
10474;BME280;5284;50.446;7.904;2022-11-20T02:25:41;97920.31;;;0.45;100.00
10474;BME280;5284;50.446;7.904;2022-11-20T02:30:46;97917.84;;;0.42;100.00
10474;BME280;5284;50.446;7.904;2022-11-20T02:35:49;97916.75;;;0.46;100.00
10474;BME280;5284;50.446;7.904;2022-11-20T02:40:53;97907.88;;;0.49;100.00
10474;BME280;5284;50.446;7.904;2022-11-20T02:45:56;97915.91;;;0.46;100.00
10474;BME280;5284;50.446;7.904;2022-11-20T02:50:59;97922.84;;;0.47;100.00
10474;BME280;5284;50.446;7.904;2022-11-20T02:56:04;97914.88;;;0.48;100.00
10474;BME280;5284;50.446;7.904;2022-11-20T03:01:07;97906.19;;;0.48;100.00
10474;BME280;5284;50.446;7.904;2022-11-20T03:06:10;97891.97;;;0.52;100.00
10474;BME280;5284;50.446;7.904;2022-11-20T03:11:14;97901.94;;;0.45;100.00
10474;BME280;5284;50.446;7.904;2022-11-20T03:16:18;97899.66;;;0.55;100.00
10474;BME280;5284;50.446;7.904;2022-11-20T03:21:21;97907.38;;;0.42;100.00
10474;BME280;5284;50.446;7.904;2022-11-20T03:26:26;97907.94;;;0.47;100.00
10474;BME280;5284;50.446;7.904;2022-11-20T03:31:30;97894.19;;;0.44;100.00
10474;BME280;5284;50.446;7.904;2022-11-20T03:36:34;97900.19;;;0.46;100.00
10474;BME280;5284;50.446;7.904;2022-11-20T03:41:41;97881.31;;;0.39;100.00
10474;BME280;5284;50.446;7.904;2022-11-20T03:46:44;97889.78;;;0.44;100.00
10474;BME280;5284;50.446;7.904;2022-11-20T03:51:47;97892.31;;;0.46;100.00
10474;BME280;5284;50.446;7.904;2022-11-20T03:56:52;97897.41;;;0.49;100.00
10474;BME280;5284;50.446;7.904;2022-11-20T04:01:54;97892.97;;;0.49;100.00
10474;BME280;5284;50.446;7.904;2022-11-20T04:06:57;97904.56;;;0.45;100.00
10474;BME280;5284;50.446;7.904;2022-11-20T04:12:02;97889.88;;;0.43;100.00
10474;BME280;5284;50.446;7.904;2022-11-20T04:17:05;97883.75;;;0.42;100.00
10474;BME280;5284;50.446;7.904;2022-11-20T04:22:08;97893.44;;;0.42;100.00
10474;BME280;5284;50.446;7.904;2022-11-20T04:27:14;97899.00;;;0.51;100.00
10474;BME280;5284;50.446;7.904;2022-11-20T04:32:17;97901.34;;;0.56;100.00
10474;BME280;5284;50.446;7.904;2022-11-20T04:37:19;97889.88;;;0.58;100.00
10474;BME280;5284;50.446;7.904;2022-11-20T04:42:23;97882.94;;;0.57;100.00
10474;BME280;5284;50.446;7.904;2022-11-20T04:47:32;97878.78;;;0.53;100.00
10474;BME280;5284;50.446;7.904;2022-11-20T04:52:35;97871.75;;;0.54;100.00
10474;BME280;5284;50.446;7.904;2022-11-20T04:57:39;97863.66;;;0.43;100.00
10474;BME280;5284;50.446;7.904;2022-11-20T05:02:42;97857.13;;;0.34;100.00
10474;BME280;5284;50.446;7.904;2022-11-20T05:07:45;97863.13;;;0.36;100.00
10474;BME280;5284;50.446;7.904;2022-11-20T05:12:49;97865.34;;;0.44;100.00
10474;BME280;5284;50.446;7.904;2022-11-20T05:17:52;97865.34;;;0.44;100.00
10474;BME280;5284;50.446;7.904;2022-11-20T05:22:56;97881.56;;;0.50;100.00
10474;BME280;5284;50.446;7.904;2022-11-20T05:28:00;97870.41;;;0.47;100.00
10474;BME280;5284;50.446;7.904;2022-11-20T05:33:03;97867.19;;;0.57;100.00
10474;BME280;5284;50.446;7.904;2022-11-20T05:38:06;97850.88;;;0.52;100.00
10474;BME280;5284;50.446;7.904;2022-11-20T05:43:10;97847.41;;;0.52;100.00
10474;BME280;5284;50.446;7.904;2022-11-20T05:48:13;97839.94;;;0.44;100.00
10474;BME280;5284;50.446;7.904;2022-11-20T05:53:16;97839.47;;;0.38;100.00
10474;BME280;5284;50.446;7.904;2022-11-20T05:58:21;97840.31;;;0.38;100.00
10474;BME280;5284;50.446;7.904;2022-11-20T06:03:23;97843.50;;;0.43;100.00
10474;BME280;5284;50.446;7.904;2022-11-20T06:08:26;97842.56;;;0.44;100.00
10474;BME280;5284;50.446;7.904;2022-11-20T06:13:31;97849.34;;;0.48;100.00
10474;BME280;5284;50.446;7.904;2022-11-20T06:18:39;97843.44;;;0.45;100.00
10474;BME280;5284;50.446;7.904;2022-11-20T06:23:41;97856.94;;;0.53;100.00
10474;BME280;5284;50.446;7.904;2022-11-20T06:28:48;97858.63;;;0.54;100.00
10474;BME280;5284;50.446;7.904;2022-11-20T06:33:52;97864.47;;;0.59;100.00
10474;BME280;5284;50.446;7.904;2022-11-20T06:38:55;97864.97;;;0.65;100.00
10474;BME280;5284;50.446;7.904;2022-11-20T06:43:59;97856.25;;;0.65;100.00
10474;BME280;5284;50.446;7.904;2022-11-20T06:49:02;97859.56;;;0.68;100.00
10474;BME280;5284;50.446;7.904;2022-11-20T06:54:05;97860.56;;;0.66;100.00
10474;BME280;5284;50.446;7.904;2022-11-20T06:59:09;97863.19;;;0.66;100.00
10474;BME280;5284;50.446;7.904;2022-11-20T07:04:12;97864.81;;;0.68;100.00
10474;BME280;5284;50.446;7.904;2022-11-20T07:09:15;97882.31;;;0.68;100.00
10474;BME280;5284;50.446;7.904;2022-11-20T07:14:19;97873.34;;;0.72;100.00
10474;BME280;5284;50.446;7.904;2022-11-20T07:19:22;97882.22;;;0.69;100.00
10474;BME280;5284;50.446;7.904;2022-11-20T07:24:25;97882.75;;;0.76;100.00
10474;BME280;5284;50.446;7.904;2022-11-20T07:29:29;97884.25;;;0.80;100.00
10474;BME280;5284;50.446;7.904;2022-11-20T07:34:32;97892.69;;;0.85;100.00
10474;BME280;5284;50.446;7.904;2022-11-20T07:39:35;97901.84;;;0.93;100.00
10474;BME280;5284;50.446;7.904;2022-11-20T07:44:39;97896.66;;;0.92;100.00
10474;BME280;5284;50.446;7.904;2022-11-20T07:49:42;97904.00;;;1.01;100.00
10474;BME280;5284;50.446;7.904;2022-11-20T07:54:45;97906.00;;;1.11;100.00
10474;BME280;5284;50.446;7.904;2022-11-20T07:59:49;97920.31;;;1.21;100.00
10474;BME280;5284;50.446;7.904;2022-11-20T08:04:52;97910.19;;;1.29;100.00
10474;BME280;5284;50.446;7.904;2022-11-20T08:09:55;97911.44;;;1.38;100.00
10474;BME280;5284;50.446;7.904;2022-11-20T08:14:59;97916.59;;;1.39;100.00
10474;BME280;5284;50.446;7.904;2022-11-20T08:20:02;97925.41;;;1.38;100.00
10474;BME280;5284;50.446;7.904;2022-11-20T08:25:06;97907.72;;;1.55;100.00
10474;BME280;5284;50.446;7.904;2022-11-20T08:30:12;97915.97;;;1.63;100.00
10474;BME280;5284;50.446;7.904;2022-11-20T08:35:15;97921.16;;;1.79;100.00
10474;BME280;5284;50.446;7.904;2022-11-20T08:40:18;97920.34;;;1.92;100.00
10474;BME280;5284;50.446;7.904;2022-11-20T08:45:23;97917.44;;;1.97;100.00
10474;BME280;5284;50.446;7.904;2022-11-20T08:50:33;97919.97;;;2.12;100.00
10474;BME280;5284;50.446;7.904;2022-11-20T08:55:36;97917.34;;;2.12;100.00
10474;BME280;5284;50.446;7.904;2022-11-20T09:00:40;97926.06;;;2.13;100.00
10474;BME280;5284;50.446;7.904;2022-11-20T09:05:43;97916.03;;;2.05;100.00
10474;BME280;5284;50.446;7.904;2022-11-20T09:10:45;97924.88;;;2.04;100.00
10474;BME280;5284;50.446;7.904;2022-11-20T09:15:55;97919.78;;;2.01;100.00
10474;BME280;5284;50.446;7.904;2022-11-20T09:20:58;97914.69;;;1.98;100.00
10474;BME280;5284;50.446;7.904;2022-11-20T09:26:02;97927.31;;;2.07;100.00
10474;BME280;5284;50.446;7.904;2022-11-20T09:31:08;97927.47;;;2.18;100.00
10474;BME280;5284;50.446;7.904;2022-11-20T09:36:11;97930.59;;;2.25;100.00
10474;BME280;5284;50.446;7.904;2022-11-20T09:41:31;97927.47;;;2.32;100.00
10474;BME280;5284;50.446;7.904;2022-11-20T09:46:45;97926.69;;;2.58;100.00
10474;BME280;5284;50.446;7.904;2022-11-20T09:51:57;97931.53;;;2.64;100.00
10474;BME280;5284;50.446;7.904;2022-11-20T09:57:03;97925.22;;;2.81;100.00
10474;BME280;5284;50.446;7.904;2022-11-20T10:02:16;97927.97;;;2.79;100.00
10474;BME280;5284;50.446;7.904;2022-11-20T10:07:23;97914.06;;;2.77;100.00
10474;BME280;5284;50.446;7.904;2022-11-20T10:12:56;97921.84;;;2.79;100.00
10474;BME280;5284;50.446;7.904;2022-11-20T10:18:21;97900.28;;;2.86;100.00
10474;BME280;5284;50.446;7.904;2022-11-20T10:23:45;97882.94;;;2.96;100.00
10474;BME280;5284;50.446;7.904;2022-11-20T10:29:01;97887.25;;;3.23;100.00
10474;BME280;5284;50.446;7.904;2022-11-20T10:34:26;97881.59;;;3.42;100.00
10474;BME280;5284;50.446;7.904;2022-11-20T10:39:35;97882.44;;;3.42;100.00
10474;BME280;5284;50.446;7.904;2022-11-20T10:44:40;97884.13;;;3.43;100.00
10474;BME280;5284;50.446;7.904;2022-11-20T10:50:16;97876.16;;;3.57;100.00
10474;BME280;5284;50.446;7.904;2022-11-20T10:55:30;97866.31;;;3.72;100.00
10474;BME280;5284;50.446;7.904;2022-11-20T11:00:35;97863.91;;;3.94;100.00
10474;BME280;5284;50.446;7.904;2022-11-20T11:05:43;97865.13;;;4.13;100.00
10474;BME280;5284;50.446;7.904;2022-11-20T11:10:52;97850.47;;;4.22;100.00
10474;BME280;5284;50.446;7.904;2022-11-20T11:15:57;97849.38;;;4.24;100.00
10474;BME280;5284;50.446;7.904;2022-11-20T11:21:03;97843.13;;;4.38;100.00
10474;BME280;5284;50.446;7.904;2022-11-20T11:26:18;97839.63;;;4.49;100.00
10474;BME280;5284;50.446;7.904;2022-11-20T11:31:23;97832.03;;;4.68;100.00
10474;BME280;5284;50.446;7.904;2022-11-20T11:36:28;97829.72;;;4.76;100.00
10474;BME280;5284;50.446;7.904;2022-11-20T11:41:33;97818.53;;;5.07;100.00
10474;BME280;5284;50.446;7.904;2022-11-20T11:46:37;97806.41;;;5.50;100.00
10474;BME280;5284;50.446;7.904;2022-11-20T11:51:58;97813.91;;;5.78;100.00
10474;BME280;5284;50.446;7.904;2022-11-20T11:57:05;97805.31;;;5.42;100.00
10474;BME280;5284;50.446;7.904;2022-11-20T12:02:18;97798.84;;;5.57;100.00
10474;BME280;5284;50.446;7.904;2022-11-20T12:07:35;97793.06;;;5.52;100.00
10474;BME280;5284;50.446;7.904;2022-11-20T12:12:51;97782.00;;;5.58;100.00
10474;BME280;5284;50.446;7.904;2022-11-20T12:17:55;97774.69;;;5.50;100.00
10474;BME280;5284;50.446;7.904;2022-11-20T12:23:06;97767.56;;;5.40;100.00
10474;BME280;5284;50.446;7.904;2022-11-20T12:34:00;97756.47;;;5.13;100.00
10474;BME280;5284;50.446;7.904;2022-11-20T12:39:15;97758.63;;;5.08;100.00
10474;BME280;5284;50.446;7.904;2022-11-20T12:44:38;97752.34;;;4.98;100.00
10474;BME280;5284;50.446;7.904;2022-11-20T12:50:11;97744.59;;;5.18;100.00
10474;BME280;5284;50.446;7.904;2022-11-20T12:55:28;97750.84;;;5.17;100.00
10474;BME280;5284;50.446;7.904;2022-11-20T13:00:38;97745.03;;;5.01;100.00
10474;BME280;5284;50.446;7.904;2022-11-20T13:05:52;97735.72;;;4.85;100.00
10474;BME280;5284;50.446;7.904;2022-11-20T13:11:06;97735.06;;;5.05;100.00
10474;BME280;5284;50.446;7.904;2022-11-20T13:16:16;97724.41;;;5.17;100.00
10474;BME280;5284;50.446;7.904;2022-11-20T13:21:35;97721.50;;;5.09;100.00
10474;BME280;5284;50.446;7.904;2022-11-20T13:26:40;97724.66;;;5.14;100.00
10474;BME280;5284;50.446;7.904;2022-11-20T13:31:44;97719.84;;;5.19;100.00
10474;BME280;5284;50.446;7.904;2022-11-20T13:36:49;97707.34;;;5.10;100.00
10474;BME280;5284;50.446;7.904;2022-11-20T13:41:56;97703.53;;;4.80;100.00
10474;BME280;5284;50.446;7.904;2022-11-20T13:46:59;97700.81;;;4.81;100.00
10474;BME280;5284;50.446;7.904;2022-11-20T13:52:20;97691.28;;;4.79;100.00
10474;BME280;5284;50.446;7.904;2022-11-20T13:57:38;97678.88;;;4.57;100.00
10474;BME280;5284;50.446;7.904;2022-11-20T14:02:59;97666.53;;;4.35;100.00
10474;BME280;5284;50.446;7.904;2022-11-20T14:08:04;97677.22;;;4.33;100.00
10474;BME280;5284;50.446;7.904;2022-11-20T14:13:15;97668.34;;;4.34;100.00
10474;BME280;5284;50.446;7.904;2022-11-20T14:18:21;97644.94;;;4.30;100.00
10474;BME280;5284;50.446;7.904;2022-11-20T14:23:25;97648.88;;;4.24;100.00
10474;BME280;5284;50.446;7.904;2022-11-20T14:28:32;97648.09;;;4.11;100.00
10474;BME280;5284;50.446;7.904;2022-11-20T14:33:36;97643.38;;;4.04;100.00
10474;BME280;5284;50.446;7.904;2022-11-20T14:38:39;97640.69;;;3.93;100.00
10474;BME280;5284;50.446;7.904;2022-11-20T14:43:47;97628.00;;;3.98;100.00
10474;BME280;5284;50.446;7.904;2022-11-20T14:48:54;97634.88;;;4.00;100.00
10474;BME280;5284;50.446;7.904;2022-11-20T14:54:11;97627.91;;;3.99;100.00
10474;BME280;5284;50.446;7.904;2022-11-20T14:59:22;97616.47;;;3.88;100.00
10474;BME280;5284;50.446;7.904;2022-11-20T15:04:26;97609.16;;;3.91;100.00
10474;BME280;5284;50.446;7.904;2022-11-20T15:09:30;97599.50;;;3.79;100.00
10474;BME280;5284;50.446;7.904;2022-11-20T15:14:36;97599.09;;;3.73;100.00
10474;BME280;5284;50.446;7.904;2022-11-20T15:19:39;97599.00;;;3.74;100.00
10474;BME280;5284;50.446;7.904;2022-11-20T15:24:42;97594.06;;;3.70;100.00
10474;BME280;5284;50.446;7.904;2022-11-20T15:29:46;97581.00;;;3.68;100.00
10474;BME280;5284;50.446;7.904;2022-11-20T15:34:49;97571.44;;;3.67;100.00
10474;BME280;5284;50.446;7.904;2022-11-20T15:39:52;97571.88;;;3.61;100.00
10474;BME280;5284;50.446;7.904;2022-11-20T15:44:56;97560.47;;;3.61;100.00
10474;BME280;5284;50.446;7.904;2022-11-20T15:49:59;97556.16;;;3.60;100.00
10474;BME280;5284;50.446;7.904;2022-11-20T15:55:04;97557.75;;;3.62;100.00
10474;BME280;5284;50.446;7.904;2022-11-20T16:00:13;97563.13;;;3.61;100.00
10474;BME280;5284;50.446;7.904;2022-11-20T16:05:23;97573.88;;;3.58;100.00
10474;BME280;5284;50.446;7.904;2022-11-20T16:10:27;97562.38;;;3.59;100.00
10474;BME280;5284;50.446;7.904;2022-11-20T16:15:31;97559.66;;;3.60;100.00
10474;BME280;5284;50.446;7.904;2022-11-20T16:20:52;97557.03;;;3.60;100.00
10474;BME280;5284;50.446;7.904;2022-11-20T16:25:55;97548.47;;;3.57;100.00
10474;BME280;5284;50.446;7.904;2022-11-20T16:31:09;97532.16;;;3.52;100.00
10474;BME280;5284;50.446;7.904;2022-11-20T16:36:15;97510.72;;;3.56;100.00
10474;BME280;5284;50.446;7.904;2022-11-20T16:41:18;97496.09;;;3.52;100.00
10474;BME280;5284;50.446;7.904;2022-11-20T16:46:23;97493.88;;;3.59;100.00
10474;BME280;5284;50.446;7.904;2022-11-20T16:51:28;97481.41;;;3.61;100.00
10474;BME280;5284;50.446;7.904;2022-11-20T16:56:32;97474.47;;;3.60;100.00
10474;BME280;5284;50.446;7.904;2022-11-20T17:01:37;97463.69;;;3.63;100.00
10474;BME280;5284;50.446;7.904;2022-11-20T17:06:43;97461.78;;;3.65;100.00
10474;BME280;5284;50.446;7.904;2022-11-20T17:11:47;97456.41;;;3.66;100.00
10474;BME280;5284;50.446;7.904;2022-11-20T17:16:51;97455.22;;;3.70;100.00
10474;BME280;5284;50.446;7.904;2022-11-20T17:21:54;97440.22;;;3.71;100.00
10474;BME280;5284;50.446;7.904;2022-11-20T17:26:57;97440.00;;;3.74;100.00
10474;BME280;5284;50.446;7.904;2022-11-20T17:32:01;97428.38;;;3.76;100.00
10474;BME280;5284;50.446;7.904;2022-11-20T17:37:04;97421.34;;;3.77;100.00
10474;BME280;5284;50.446;7.904;2022-11-20T17:42:07;97418.47;;;3.80;100.00
10474;BME280;5284;50.446;7.904;2022-11-20T17:47:34;97411.16;;;3.83;100.00
10474;BME280;5284;50.446;7.904;2022-11-20T17:52:36;97419.06;;;3.83;100.00
10474;BME280;5284;50.446;7.904;2022-11-20T17:57:39;97412.22;;;3.81;100.00
10474;BME280;5284;50.446;7.904;2022-11-20T18:02:58;97405.16;;;3.81;100.00
10474;BME280;5284;50.446;7.904;2022-11-20T18:08:01;97395.94;;;3.87;100.00
10474;BME280;5284;50.446;7.904;2022-11-20T18:13:04;97379.03;;;3.89;100.00
10474;BME280;5284;50.446;7.904;2022-11-20T18:18:08;97378.44;;;3.97;100.00
10474;BME280;5284;50.446;7.904;2022-11-20T18:23:11;97371.25;;;3.99;100.00
10474;BME280;5284;50.446;7.904;2022-11-20T18:28:14;97359.97;;;3.97;100.00
10474;BME280;5284;50.446;7.904;2022-11-20T18:33:18;97346.78;;;4.08;100.00
10474;BME280;5284;50.446;7.904;2022-11-20T18:38:28;97339.50;;;4.11;100.00
10474;BME280;5284;50.446;7.904;2022-11-20T18:43:31;97329.63;;;4.24;100.00
10474;BME280;5284;50.446;7.904;2022-11-20T18:48:53;97324.13;;;4.38;100.00
10474;BME280;5284;50.446;7.904;2022-11-20T18:53:57;97311.50;;;4.52;100.00
10474;BME280;5284;50.446;7.904;2022-11-20T18:59:00;97305.97;;;4.55;100.00
10474;BME280;5284;50.446;7.904;2022-11-20T19:04:07;97289.50;;;4.63;100.00
10474;BME280;5284;50.446;7.904;2022-11-20T19:09:11;97280.94;;;4.70;100.00
10474;BME280;5284;50.446;7.904;2022-11-20T19:14:14;97273.25;;;4.78;100.00
10474;BME280;5284;50.446;7.904;2022-11-20T19:19:19;97249.81;;;4.85;100.00
10474;BME280;5284;50.446;7.904;2022-11-20T19:24:22;97251.47;;;4.86;100.00
10474;BME280;5284;50.446;7.904;2022-11-20T19:29:25;97253.84;;;4.89;100.00
10474;BME280;5284;50.446;7.904;2022-11-20T19:34:30;97251.19;;;5.00;100.00
10474;BME280;5284;50.446;7.904;2022-11-20T19:39:34;97247.16;;;5.05;100.00
10474;BME280;5284;50.446;7.904;2022-11-20T19:44:37;97240.53;;;5.11;100.00
10474;BME280;5284;50.446;7.904;2022-11-20T19:49:42;97238.63;;;5.13;100.00
10474;BME280;5284;50.446;7.904;2022-11-20T19:54:45;97230.44;;;5.16;100.00
10474;BME280;5284;50.446;7.904;2022-11-20T19:59:48;97222.25;;;5.19;100.00
10474;BME280;5284;50.446;7.904;2022-11-20T20:04:52;97228.22;;;5.21;100.00
10474;BME280;5284;50.446;7.904;2022-11-20T20:09:55;97228.09;;;5.22;100.00
10474;BME280;5284;50.446;7.904;2022-11-20T20:14:58;97219.34;;;5.22;100.00
10474;BME280;5284;50.446;7.904;2022-11-20T20:20:03;97234.38;;;5.21;100.00
10474;BME280;5284;50.446;7.904;2022-11-20T20:25:06;97232.69;;;5.20;100.00
10474;BME280;5284;50.446;7.904;2022-11-20T20:30:10;97227.53;;;5.19;100.00
10474;BME280;5284;50.446;7.904;2022-11-20T20:35:14;97235.19;;;5.22;100.00
10474;BME280;5284;50.446;7.904;2022-11-20T20:40:17;97233.41;;;5.22;100.00
10474;BME280;5284;50.446;7.904;2022-11-20T20:45:20;97233.25;;;5.24;100.00
10474;BME280;5284;50.446;7.904;2022-11-20T20:50:25;97220.75;;;5.26;100.00
10474;BME280;5284;50.446;7.904;2022-11-20T20:55:28;97224.94;;;5.28;100.00
10474;BME280;5284;50.446;7.904;2022-11-20T21:00:31;97219.28;;;5.33;100.00
10474;BME280;5284;50.446;7.904;2022-11-20T21:05:35;97224.41;;;5.34;100.00
10474;BME280;5284;50.446;7.904;2022-11-20T21:10:38;97220.53;;;5.38;100.00
10474;BME280;5284;50.446;7.904;2022-11-20T21:15:41;97220.69;;;5.37;100.00
10474;BME280;5284;50.446;7.904;2022-11-20T21:20:46;97213.31;;;5.40;100.00
10474;BME280;5284;50.446;7.904;2022-11-20T21:26:07;97204.56;;;5.40;100.00
10474;BME280;5284;50.446;7.904;2022-11-20T21:31:13;97208.63;;;5.44;100.00
10474;BME280;5284;50.446;7.904;2022-11-20T21:36:18;97188.16;;;5.46;100.00
10474;BME280;5284;50.446;7.904;2022-11-20T21:41:23;97197.19;;;5.43;100.00
10474;BME280;5284;50.446;7.904;2022-11-20T21:46:26;97205.25;;;5.42;100.00
10474;BME280;5284;50.446;7.904;2022-11-20T21:51:31;97197.06;;;5.45;100.00
10474;BME280;5284;50.446;7.904;2022-11-20T21:56:34;97205.00;;;5.45;100.00
10474;BME280;5284;50.446;7.904;2022-11-20T22:01:37;97187.03;;;5.39;100.00
10474;BME280;5284;50.446;7.904;2022-11-20T22:06:42;97195.78;;;5.39;100.00
10474;BME280;5284;50.446;7.904;2022-11-20T22:11:45;97194.25;;;5.37;100.00
10474;BME280;5284;50.446;7.904;2022-11-20T22:16:48;97192.69;;;5.34;100.00
10474;BME280;5284;50.446;7.904;2022-11-20T22:21:53;97208.97;;;5.30;100.00
10474;BME280;5284;50.446;7.904;2022-11-20T22:26:55;97221.72;;;5.25;100.00
10474;BME280;5284;50.446;7.904;2022-11-20T22:31:58;97221.25;;;5.20;100.00
10474;BME280;5284;50.446;7.904;2022-11-20T22:37:03;97218.34;;;5.13;100.00
10474;BME280;5284;50.446;7.904;2022-11-20T22:42:05;97226.53;;;5.10;100.00
10474;BME280;5284;50.446;7.904;2022-11-20T22:47:08;97233.97;;;5.05;100.00
10474;BME280;5284;50.446;7.904;2022-11-20T22:52:13;97235.91;;;5.03;100.00
10474;BME280;5284;50.446;7.904;2022-11-20T22:57:16;97239.38;;;5.04;100.00
10474;BME280;5284;50.446;7.904;2022-11-20T23:02:19;97238.44;;;5.05;100.00
10474;BME280;5284;50.446;7.904;2022-11-20T23:07:23;97237.00;;;5.01;100.00
10474;BME280;5284;50.446;7.904;2022-11-20T23:12:27;97239.75;;;4.99;100.00
10474;BME280;5284;50.446;7.904;2022-11-20T23:17:30;97234.88;;;4.95;100.00
10474;BME280;5284;50.446;7.904;2022-11-20T23:22:34;97244.84;;;4.91;100.00
10474;BME280;5284;50.446;7.904;2022-11-20T23:27:37;97237.75;;;4.92;100.00
10474;BME280;5284;50.446;7.904;2022-11-20T23:32:39;97246.53;;;4.92;100.00
10474;BME280;5284;50.446;7.904;2022-11-20T23:37:43;97237.63;;;4.93;100.00
10474;BME280;5284;50.446;7.904;2022-11-20T23:42:46;97237.53;;;4.95;100.00
10474;BME280;5284;50.446;7.904;2022-11-20T23:48:04;97239.22;;;4.96;100.00
10474;BME280;5284;50.446;7.904;2022-11-20T23:53:09;97238.50;;;4.94;100.00
10474;BME280;5284;50.446;7.904;2022-11-20T23:58:12;97242.81;;;4.95;100.00
